sensor_id;sensor_type;location;lat;lon;timestamp;P1;durP1;ratioP1;P2;durP2;ratioP2
3571;SDS011;7958;53.024;12.970;2024-03-08T00:02:03;12.70;;;7.80;;
3571;SDS011;7958;53.024;12.970;2024-03-08T00:04:29;12.50;;;8.90;;
3571;SDS011;7958;53.024;12.970;2024-03-08T00:06:55;13.73;;;8.17;;
3571;SDS011;7958;53.024;12.970;2024-03-08T00:09:24;14.00;;;8.00;;
3571;SDS011;7958;53.024;12.970;2024-03-08T00:11:53;20.53;;;9.70;;
3571;SDS011;7958;53.024;12.970;2024-03-08T00:14:20;15.67;;;8.57;;
3571;SDS011;7958;53.024;12.970;2024-03-08T00:16:46;17.63;;;9.90;;
3571;SDS011;7958;53.024;12.970;2024-03-08T00:19:13;14.60;;;8.87;;
3571;SDS011;7958;53.024;12.970;2024-03-08T00:21:39;20.50;;;9.70;;
3571;SDS011;7958;53.024;12.970;2024-03-08T00:24:06;14.07;;;8.03;;
3571;SDS011;7958;53.024;12.970;2024-03-08T00:26:33;16.77;;;9.00;;
3571;SDS011;7958;53.024;12.970;2024-03-08T00:29:01;14.17;;;8.83;;
3571;SDS011;7958;53.024;12.970;2024-03-08T00:31:28;11.80;;;7.37;;
3571;SDS011;7958;53.024;12.970;2024-03-08T00:33:55;14.43;;;8.90;;
3571;SDS011;7958;53.024;12.970;2024-03-08T00:36:22;15.43;;;8.57;;
3571;SDS011;7958;53.024;12.970;2024-03-08T00:38:49;15.47;;;8.53;;
3571;SDS011;7958;53.024;12.970;2024-03-08T00:41:16;13.90;;;8.70;;
3571;SDS011;7958;53.024;12.970;2024-03-08T00:43:42;16.63;;;8.70;;
3571;SDS011;7958;53.024;12.970;2024-03-08T00:46:10;15.77;;;8.90;;
3571;SDS011;7958;53.024;12.970;2024-03-08T00:48:37;14.10;;;8.37;;
3571;SDS011;7958;53.024;12.970;2024-03-08T00:51:03;12.30;;;8.50;;
3571;SDS011;7958;53.024;12.970;2024-03-08T00:53:30;18.73;;;9.87;;
3571;SDS011;7958;53.024;12.970;2024-03-08T00:55:56;18.50;;;9.33;;
3571;SDS011;7958;53.024;12.970;2024-03-08T00:58:23;17.67;;;9.50;;
3571;SDS011;7958;53.024;12.970;2024-03-08T01:00:50;13.97;;;8.10;;
3571;SDS011;7958;53.024;12.970;2024-03-08T01:03:18;14.10;;;8.13;;
3571;SDS011;7958;53.024;12.970;2024-03-08T01:05:44;16.33;;;8.57;;
3571;SDS011;7958;53.024;12.970;2024-03-08T01:08:11;16.20;;;8.83;;
3571;SDS011;7958;53.024;12.970;2024-03-08T01:10:37;13.50;;;8.00;;
3571;SDS011;7958;53.024;12.970;2024-03-08T01:13:04;17.13;;;8.57;;
3571;SDS011;7958;53.024;12.970;2024-03-08T01:15:30;15.70;;;8.90;;
3571;SDS011;7958;53.024;12.970;2024-03-08T01:17:57;18.13;;;9.13;;
3571;SDS011;7958;53.024;12.970;2024-03-08T01:20:25;14.80;;;8.90;;
3571;SDS011;7958;53.024;12.970;2024-03-08T01:22:51;15.67;;;8.77;;
3571;SDS011;7958;53.024;12.970;2024-03-08T01:25:19;18.77;;;9.10;;
3571;SDS011;7958;53.024;12.970;2024-03-08T01:27:45;14.73;;;8.13;;
3571;SDS011;7958;53.024;12.970;2024-03-08T01:30:11;19.30;;;9.30;;
3571;SDS011;7958;53.024;12.970;2024-03-08T01:32:42;12.87;;;8.20;;
3571;SDS011;7958;53.024;12.970;2024-03-08T01:35:09;15.63;;;9.13;;
3571;SDS011;7958;53.024;12.970;2024-03-08T01:37:36;11.80;;;7.50;;
3571;SDS011;7958;53.024;12.970;2024-03-08T01:40:03;15.90;;;8.87;;
3571;SDS011;7958;53.024;12.970;2024-03-08T01:42:30;19.90;;;8.23;;
3571;SDS011;7958;53.024;12.970;2024-03-08T01:44:56;14.90;;;8.67;;
3571;SDS011;7958;53.024;12.970;2024-03-08T01:47:23;18.23;;;8.90;;
3571;SDS011;7958;53.024;12.970;2024-03-08T01:49:49;17.73;;;9.47;;
3571;SDS011;7958;53.024;12.970;2024-03-08T01:52:16;20.67;;;9.20;;
3571;SDS011;7958;53.024;12.970;2024-03-08T01:54:45;18.67;;;9.47;;
3571;SDS011;7958;53.024;12.970;2024-03-08T01:57:12;14.57;;;8.27;;
3571;SDS011;7958;53.024;12.970;2024-03-08T01:59:38;13.73;;;8.40;;
3571;SDS011;7958;53.024;12.970;2024-03-08T02:02:06;19.07;;;9.07;;
3571;SDS011;7958;53.024;12.970;2024-03-08T02:04:34;17.40;;;8.70;;
3571;SDS011;7958;53.024;12.970;2024-03-08T02:07:01;13.17;;;8.77;;
3571;SDS011;7958;53.024;12.970;2024-03-08T02:09:30;14.93;;;9.27;;
3571;SDS011;7958;53.024;12.970;2024-03-08T02:11:57;14.07;;;8.40;;
3571;SDS011;7958;53.024;12.970;2024-03-08T02:14:24;19.80;;;8.87;;
3571;SDS011;7958;53.024;12.970;2024-03-08T02:16:50;15.03;;;8.80;;
3571;SDS011;7958;53.024;12.970;2024-03-08T02:19:17;15.30;;;8.70;;
3571;SDS011;7958;53.024;12.970;2024-03-08T02:21:45;21.40;;;9.43;;
3571;SDS011;7958;53.024;12.970;2024-03-08T02:24:12;16.30;;;8.80;;
3571;SDS011;7958;53.024;12.970;2024-03-08T02:26:39;17.23;;;8.23;;
3571;SDS011;7958;53.024;12.970;2024-03-08T02:29:07;16.70;;;8.40;;
3571;SDS011;7958;53.024;12.970;2024-03-08T02:31:34;13.27;;;8.53;;
3571;SDS011;7958;53.024;12.970;2024-03-08T02:34:00;21.60;;;9.73;;
3571;SDS011;7958;53.024;12.970;2024-03-08T02:36:27;14.10;;;8.10;;
3571;SDS011;7958;53.024;12.970;2024-03-08T02:38:54;18.67;;;9.60;;
3571;SDS011;7958;53.024;12.970;2024-03-08T02:41:21;15.73;;;8.40;;
3571;SDS011;7958;53.024;12.970;2024-03-08T02:43:47;13.80;;;8.47;;
3571;SDS011;7958;53.024;12.970;2024-03-08T02:46:14;14.40;;;8.37;;
3571;SDS011;7958;53.024;12.970;2024-03-08T02:48:41;17.03;;;9.00;;
3571;SDS011;7958;53.024;12.970;2024-03-08T02:51:07;17.43;;;9.80;;
3571;SDS011;7958;53.024;12.970;2024-03-08T02:53:35;11.10;;;7.87;;
3571;SDS011;7958;53.024;12.970;2024-03-08T02:56:04;18.00;;;8.90;;
3571;SDS011;7958;53.024;12.970;2024-03-08T02:58:33;14.27;;;8.80;;
3571;SDS011;7958;53.024;12.970;2024-03-08T03:01:00;17.40;;;9.30;;
3571;SDS011;7958;53.024;12.970;2024-03-08T03:03:27;14.10;;;8.17;;
3571;SDS011;7958;53.024;12.970;2024-03-08T03:05:53;20.70;;;9.83;;
3571;SDS011;7958;53.024;12.970;2024-03-08T03:08:20;13.93;;;8.10;;
3571;SDS011;7958;53.024;12.970;2024-03-08T03:10:47;15.87;;;9.07;;
3571;SDS011;7958;53.024;12.970;2024-03-08T03:13:14;14.33;;;8.83;;
3571;SDS011;7958;53.024;12.970;2024-03-08T03:15:41;16.80;;;9.77;;
3571;SDS011;7958;53.024;12.970;2024-03-08T03:18:07;22.03;;;8.77;;
3571;SDS011;7958;53.024;12.970;2024-03-08T03:20:34;14.67;;;9.10;;
3571;SDS011;7958;53.024;12.970;2024-03-08T03:23:05;18.37;;;9.37;;
3571;SDS011;7958;53.024;12.970;2024-03-08T03:25:33;14.87;;;9.13;;
3571;SDS011;7958;53.024;12.970;2024-03-08T03:28:00;15.03;;;8.23;;
3571;SDS011;7958;53.024;12.970;2024-03-08T03:30:29;16.73;;;9.43;;
3571;SDS011;7958;53.024;12.970;2024-03-08T03:32:58;17.40;;;9.13;;
3571;SDS011;7958;53.024;12.970;2024-03-08T03:35:25;21.80;;;10.23;;
3571;SDS011;7958;53.024;12.970;2024-03-08T03:37:52;18.20;;;9.87;;
3571;SDS011;7958;53.024;12.970;2024-03-08T03:40:27;19.93;;;9.93;;
3571;SDS011;7958;53.024;12.970;2024-03-08T03:42:54;16.93;;;9.87;;
3571;SDS011;7958;53.024;12.970;2024-03-08T03:45:20;16.43;;;8.90;;
3571;SDS011;7958;53.024;12.970;2024-03-08T03:47:48;21.40;;;11.63;;
3571;SDS011;7958;53.024;12.970;2024-03-08T03:50:14;21.20;;;10.27;;
3571;SDS011;7958;53.024;12.970;2024-03-08T03:52:41;17.40;;;10.03;;
3571;SDS011;7958;53.024;12.970;2024-03-08T03:55:07;20.57;;;10.00;;
3571;SDS011;7958;53.024;12.970;2024-03-08T03:57:35;13.30;;;9.60;;
3571;SDS011;7958;53.024;12.970;2024-03-08T04:00:01;16.90;;;10.20;;
3571;SDS011;7958;53.024;12.970;2024-03-08T04:02:28;18.00;;;9.60;;
3571;SDS011;7958;53.024;12.970;2024-03-08T04:04:56;15.83;;;9.10;;
3571;SDS011;7958;53.024;12.970;2024-03-08T04:07:23;21.93;;;8.93;;
3571;SDS011;7958;53.024;12.970;2024-03-08T04:09:49;20.43;;;10.77;;
3571;SDS011;7958;53.024;12.970;2024-03-08T04:12:16;19.83;;;10.47;;
3571;SDS011;7958;53.024;12.970;2024-03-08T04:14:42;19.53;;;11.03;;
3571;SDS011;7958;53.024;12.970;2024-03-08T04:17:09;17.53;;;9.30;;
3571;SDS011;7958;53.024;12.970;2024-03-08T04:19:36;19.90;;;10.30;;
3571;SDS011;7958;53.024;12.970;2024-03-08T04:22:05;19.27;;;11.27;;
3571;SDS011;7958;53.024;12.970;2024-03-08T04:24:32;22.17;;;10.87;;
3571;SDS011;7958;53.024;12.970;2024-03-08T04:26:59;22.27;;;10.40;;
3571;SDS011;7958;53.024;12.970;2024-03-08T04:29:25;15.83;;;9.80;;
3571;SDS011;7958;53.024;12.970;2024-03-08T04:31:52;17.83;;;10.33;;
3571;SDS011;7958;53.024;12.970;2024-03-08T04:34:19;19.83;;;10.70;;
3571;SDS011;7958;53.024;12.970;2024-03-08T04:36:45;17.47;;;10.50;;
3571;SDS011;7958;53.024;12.970;2024-03-08T04:39:13;20.07;;;11.07;;
3571;SDS011;7958;53.024;12.970;2024-03-08T04:41:40;22.20;;;11.67;;
3571;SDS011;7958;53.024;12.970;2024-03-08T04:44:08;22.53;;;11.57;;
3571;SDS011;7958;53.024;12.970;2024-03-08T04:46:35;24.43;;;12.40;;
3571;SDS011;7958;53.024;12.970;2024-03-08T04:49:01;26.70;;;12.70;;
3571;SDS011;7958;53.024;12.970;2024-03-08T04:51:27;22.10;;;11.80;;
3571;SDS011;7958;53.024;12.970;2024-03-08T04:53:54;31.00;;;11.97;;
3571;SDS011;7958;53.024;12.970;2024-03-08T04:56:23;33.90;;;12.70;;
3571;SDS011;7958;53.024;12.970;2024-03-08T04:58:50;22.43;;;12.03;;
3571;SDS011;7958;53.024;12.970;2024-03-08T05:01:17;22.57;;;12.67;;
3571;SDS011;7958;53.024;12.970;2024-03-08T05:03:43;25.90;;;13.13;;
3571;SDS011;7958;53.024;12.970;2024-03-08T05:06:10;21.80;;;11.67;;
3571;SDS011;7958;53.024;12.970;2024-03-08T05:08:36;28.23;;;12.37;;
3571;SDS011;7958;53.024;12.970;2024-03-08T05:11:03;21.73;;;12.50;;
3571;SDS011;7958;53.024;12.970;2024-03-08T05:13:33;23.00;;;11.77;;
3571;SDS011;7958;53.024;12.970;2024-03-08T05:15:59;22.97;;;11.83;;
3571;SDS011;7958;53.024;12.970;2024-03-08T05:18:26;26.13;;;13.40;;
3571;SDS011;7958;53.024;12.970;2024-03-08T05:20:53;22.23;;;11.93;;
3571;SDS011;7958;53.024;12.970;2024-03-08T05:23:19;22.60;;;12.00;;
3571;SDS011;7958;53.024;12.970;2024-03-08T05:25:47;23.93;;;12.47;;
3571;SDS011;7958;53.024;12.970;2024-03-08T05:28:13;23.10;;;13.30;;
3571;SDS011;7958;53.024;12.970;2024-03-08T05:30:41;21.30;;;11.60;;
3571;SDS011;7958;53.024;12.970;2024-03-08T05:33:08;22.37;;;12.43;;
3571;SDS011;7958;53.024;12.970;2024-03-08T05:35:35;25.57;;;13.97;;
3571;SDS011;7958;53.024;12.970;2024-03-08T05:38:01;25.53;;;13.20;;
3571;SDS011;7958;53.024;12.970;2024-03-08T05:40:28;20.87;;;11.43;;
3571;SDS011;7958;53.024;12.970;2024-03-08T05:42:57;20.60;;;11.10;;
3571;SDS011;7958;53.024;12.970;2024-03-08T05:45:24;22.00;;;11.20;;
3571;SDS011;7958;53.024;12.970;2024-03-08T05:47:51;21.30;;;11.20;;
3571;SDS011;7958;53.024;12.970;2024-03-08T05:50:18;23.10;;;11.83;;
3571;SDS011;7958;53.024;12.970;2024-03-08T05:52:44;28.17;;;12.60;;
3571;SDS011;7958;53.024;12.970;2024-03-08T05:55:12;22.10;;;12.37;;
3571;SDS011;7958;53.024;12.970;2024-03-08T05:57:39;22.57;;;12.00;;
3571;SDS011;7958;53.024;12.970;2024-03-08T06:00:07;20.50;;;10.97;;
3571;SDS011;7958;53.024;12.970;2024-03-08T06:02:36;23.37;;;11.30;;
3571;SDS011;7958;53.024;12.970;2024-03-08T06:05:07;26.27;;;13.50;;
3571;SDS011;7958;53.024;12.970;2024-03-08T06:07:35;24.63;;;11.20;;
3571;SDS011;7958;53.024;12.970;2024-03-08T06:10:01;24.07;;;12.10;;
3571;SDS011;7958;53.024;12.970;2024-03-08T06:12:28;25.10;;;12.20;;
3571;SDS011;7958;53.024;12.970;2024-03-08T06:14:58;27.27;;;12.60;;
3571;SDS011;7958;53.024;12.970;2024-03-08T06:17:24;25.27;;;12.60;;
3571;SDS011;7958;53.024;12.970;2024-03-08T06:19:51;28.87;;;13.13;;
3571;SDS011;7958;53.024;12.970;2024-03-08T06:22:18;27.90;;;13.13;;
3571;SDS011;7958;53.024;12.970;2024-03-08T06:24:45;17.00;;;10.00;;
3571;SDS011;7958;53.024;12.970;2024-03-08T06:27:12;29.50;;;13.90;;
3571;SDS011;7958;53.024;12.970;2024-03-08T06:29:39;37.00;;;16.70;;
3571;SDS011;7958;53.024;12.970;2024-03-08T06:32:05;33.20;;;15.73;;
3571;SDS011;7958;53.024;12.970;2024-03-08T06:34:32;27.20;;;12.90;;
3571;SDS011;7958;53.024;12.970;2024-03-08T06:36:59;27.00;;;13.70;;
3571;SDS011;7958;53.024;12.970;2024-03-08T06:39:28;26.10;;;13.27;;
3571;SDS011;7958;53.024;12.970;2024-03-08T06:41:56;26.13;;;12.40;;
3571;SDS011;7958;53.024;12.970;2024-03-08T06:44:23;25.40;;;13.03;;
3571;SDS011;7958;53.024;12.970;2024-03-08T06:46:49;21.70;;;12.80;;
3571;SDS011;7958;53.024;12.970;2024-03-08T06:49:15;24.67;;;13.13;;
3571;SDS011;7958;53.024;12.970;2024-03-08T06:51:41;23.70;;;13.23;;
3571;SDS011;7958;53.024;12.970;2024-03-08T06:54:08;26.93;;;14.93;;
3571;SDS011;7958;53.024;12.970;2024-03-08T06:56:36;24.60;;;12.87;;
3571;SDS011;7958;53.024;12.970;2024-03-08T06:59:02;25.63;;;13.07;;
3571;SDS011;7958;53.024;12.970;2024-03-08T07:01:29;26.87;;;13.77;;
3571;SDS011;7958;53.024;12.970;2024-03-08T07:03:56;26.60;;;13.20;;
3571;SDS011;7958;53.024;12.970;2024-03-08T07:06:23;21.37;;;12.30;;
3571;SDS011;7958;53.024;12.970;2024-03-08T07:08:50;21.40;;;12.10;;
3571;SDS011;7958;53.024;12.970;2024-03-08T07:11:16;23.73;;;13.13;;
3571;SDS011;7958;53.024;12.970;2024-03-08T07:13:45;21.50;;;11.83;;
3571;SDS011;7958;53.024;12.970;2024-03-08T07:16:11;22.97;;;12.70;;
3571;SDS011;7958;53.024;12.970;2024-03-08T07:18:38;22.53;;;13.50;;
3571;SDS011;7958;53.024;12.970;2024-03-08T07:21:05;21.63;;;13.80;;
3571;SDS011;7958;53.024;12.970;2024-03-08T07:23:31;23.57;;;12.43;;
3571;SDS011;7958;53.024;12.970;2024-03-08T07:26:23;28.03;;;13.53;;
3571;SDS011;7958;53.024;12.970;2024-03-08T07:28:51;22.43;;;12.43;;
3571;SDS011;7958;53.024;12.970;2024-03-08T07:31:19;23.87;;;14.43;;
3571;SDS011;7958;53.024;12.970;2024-03-08T07:33:51;18.20;;;11.50;;
3571;SDS011;7958;53.024;12.970;2024-03-08T07:36:18;19.57;;;11.67;;
3571;SDS011;7958;53.024;12.970;2024-03-08T07:38:45;22.17;;;13.37;;
3571;SDS011;7958;53.024;12.970;2024-03-08T07:41:11;22.10;;;13.40;;
3571;SDS011;7958;53.024;12.970;2024-03-08T07:43:38;19.57;;;12.47;;
3571;SDS011;7958;53.024;12.970;2024-03-08T07:46:06;21.37;;;13.03;;
3571;SDS011;7958;53.024;12.970;2024-03-08T07:48:35;27.33;;;13.50;;
3571;SDS011;7958;53.024;12.970;2024-03-08T07:51:01;23.03;;;13.00;;
3571;SDS011;7958;53.024;12.970;2024-03-08T07:53:28;20.60;;;12.77;;
3571;SDS011;7958;53.024;12.970;2024-03-08T07:55:55;20.83;;;13.03;;
3571;SDS011;7958;53.024;12.970;2024-03-08T07:58:21;22.57;;;12.37;;
3571;SDS011;7958;53.024;12.970;2024-03-08T08:00:48;22.30;;;13.13;;
3571;SDS011;7958;53.024;12.970;2024-03-08T08:03:16;20.53;;;12.40;;
3571;SDS011;7958;53.024;12.970;2024-03-08T08:05:45;22.60;;;13.00;;
3571;SDS011;7958;53.024;12.970;2024-03-08T08:08:12;20.07;;;13.03;;
3571;SDS011;7958;53.024;12.970;2024-03-08T08:10:38;22.83;;;14.90;;
3571;SDS011;7958;53.024;12.970;2024-03-08T08:13:05;20.20;;;11.80;;
3571;SDS011;7958;53.024;12.970;2024-03-08T08:15:31;22.50;;;13.90;;
3571;SDS011;7958;53.024;12.970;2024-03-08T08:17:59;19.77;;;12.33;;
3571;SDS011;7958;53.024;12.970;2024-03-08T08:20:29;24.03;;;14.20;;
3571;SDS011;7958;53.024;12.970;2024-03-08T08:22:55;20.20;;;13.40;;
3571;SDS011;7958;53.024;12.970;2024-03-08T08:25:22;22.50;;;14.57;;
3571;SDS011;7958;53.024;12.970;2024-03-08T08:27:49;21.60;;;13.00;;
3571;SDS011;7958;53.024;12.970;2024-03-08T08:30:16;23.13;;;13.60;;
3571;SDS011;7958;53.024;12.970;2024-03-08T08:32:43;20.13;;;13.43;;
3571;SDS011;7958;53.024;12.970;2024-03-08T08:35:09;23.10;;;13.97;;
3571;SDS011;7958;53.024;12.970;2024-03-08T08:37:39;21.93;;;13.50;;
3571;SDS011;7958;53.024;12.970;2024-03-08T08:40:06;18.77;;;12.43;;
3571;SDS011;7958;53.024;12.970;2024-03-08T08:42:35;19.13;;;13.13;;
3571;SDS011;7958;53.024;12.970;2024-03-08T08:45:02;19.40;;;13.90;;
3571;SDS011;7958;53.024;12.970;2024-03-08T08:47:33;19.07;;;13.37;;
3571;SDS011;7958;53.024;12.970;2024-03-08T08:49:59;19.33;;;13.77;;
3571;SDS011;7958;53.024;12.970;2024-03-08T08:52:26;20.97;;;12.60;;
3571;SDS011;7958;53.024;12.970;2024-03-08T08:54:55;19.70;;;12.80;;
3571;SDS011;7958;53.024;12.970;2024-03-08T08:57:22;20.70;;;13.43;;
3571;SDS011;7958;53.024;12.970;2024-03-08T08:59:49;21.20;;;11.03;;
3571;SDS011;7958;53.024;12.970;2024-03-08T09:02:16;17.07;;;11.33;;
3571;SDS011;7958;53.024;12.970;2024-03-08T09:04:45;22.30;;;12.67;;
3571;SDS011;7958;53.024;12.970;2024-03-08T09:07:12;19.43;;;13.37;;
3571;SDS011;7958;53.024;12.970;2024-03-08T09:09:39;17.77;;;12.23;;
3571;SDS011;7958;53.024;12.970;2024-03-08T09:12:08;18.23;;;12.30;;
3571;SDS011;7958;53.024;12.970;2024-03-08T09:14:34;21.33;;;12.43;;
3571;SDS011;7958;53.024;12.970;2024-03-08T09:17:01;17.70;;;12.30;;
3571;SDS011;7958;53.024;12.970;2024-03-08T09:19:27;17.33;;;12.70;;
3571;SDS011;7958;53.024;12.970;2024-03-08T09:21:53;17.40;;;11.63;;
3571;SDS011;7958;53.024;12.970;2024-03-08T09:24:20;17.77;;;11.97;;
3571;SDS011;7958;53.024;12.970;2024-03-08T09:26:46;19.10;;;11.80;;
3571;SDS011;7958;53.024;12.970;2024-03-08T09:29:14;15.97;;;11.60;;
3571;SDS011;7958;53.024;12.970;2024-03-08T09:31:41;17.97;;;10.30;;
3571;SDS011;7958;53.024;12.970;2024-03-08T09:34:07;24.10;;;12.50;;
3571;SDS011;7958;53.024;12.970;2024-03-08T09:36:34;16.20;;;12.40;;
3571;SDS011;7958;53.024;12.970;2024-03-08T09:39:01;15.40;;;10.63;;
3571;SDS011;7958;53.024;12.970;2024-03-08T09:41:28;18.47;;;12.60;;
3571;SDS011;7958;53.024;12.970;2024-03-08T09:43:55;18.40;;;12.27;;
3571;SDS011;7958;53.024;12.970;2024-03-08T09:46:25;17.50;;;11.00;;
3571;SDS011;7958;53.024;12.970;2024-03-08T09:48:52;17.10;;;11.80;;
3571;SDS011;7958;53.024;12.970;2024-03-08T09:51:19;18.13;;;12.03;;
3571;SDS011;7958;53.024;12.970;2024-03-08T09:53:51;24.93;;;12.90;;
3571;SDS011;7958;53.024;12.970;2024-03-08T09:56:18;16.40;;;11.10;;
3571;SDS011;7958;53.024;12.970;2024-03-08T09:58:44;19.57;;;13.23;;
3571;SDS011;7958;53.024;12.970;2024-03-08T10:01:41;22.93;;;13.60;;
3571;SDS011;7958;53.024;12.970;2024-03-08T10:04:07;15.80;;;11.10;;
3571;SDS011;7958;53.024;12.970;2024-03-08T10:06:34;17.50;;;12.77;;
3571;SDS011;7958;53.024;12.970;2024-03-08T10:09:01;16.77;;;12.03;;
3571;SDS011;7958;53.024;12.970;2024-03-08T10:11:28;17.00;;;11.53;;
3571;SDS011;7958;53.024;12.970;2024-03-08T10:13:54;17.80;;;12.30;;
3571;SDS011;7958;53.024;12.970;2024-03-08T10:16:22;18.23;;;12.40;;
3571;SDS011;7958;53.024;12.970;2024-03-08T10:18:50;20.40;;;13.17;;
3571;SDS011;7958;53.024;12.970;2024-03-08T10:21:18;20.33;;;13.67;;
3571;SDS011;7958;53.024;12.970;2024-03-08T10:23:44;20.33;;;12.87;;
3571;SDS011;7958;53.024;12.970;2024-03-08T10:26:11;18.00;;;12.83;;
3571;SDS011;7958;53.024;12.970;2024-03-08T10:28:39;24.03;;;13.47;;
3571;SDS011;7958;53.024;12.970;2024-03-08T10:31:06;18.20;;;11.70;;
3571;SDS011;7958;53.024;12.970;2024-03-08T10:33:32;17.37;;;12.73;;
3571;SDS011;7958;53.024;12.970;2024-03-08T10:36:03;19.63;;;13.30;;
3571;SDS011;7958;53.024;12.970;2024-03-08T10:38:32;15.23;;;11.80;;
3571;SDS011;7958;53.024;12.970;2024-03-08T10:41:00;18.23;;;11.80;;
3571;SDS011;7958;53.024;12.970;2024-03-08T10:43:27;19.47;;;12.73;;
3571;SDS011;7958;53.024;12.970;2024-03-08T10:45:57;17.40;;;12.07;;
3571;SDS011;7958;53.024;12.970;2024-03-08T10:48:29;17.10;;;12.13;;
3571;SDS011;7958;53.024;12.970;2024-03-08T10:50:57;17.70;;;11.90;;
3571;SDS011;7958;53.024;12.970;2024-03-08T10:53:26;21.87;;;14.03;;
3571;SDS011;7958;53.024;12.970;2024-03-08T10:55:54;17.93;;;13.37;;
3571;SDS011;7958;53.024;12.970;2024-03-08T10:58:22;19.47;;;13.37;;
3571;SDS011;7958;53.024;12.970;2024-03-08T11:00:51;14.93;;;11.63;;
3571;SDS011;7958;53.024;12.970;2024-03-08T11:06:14;16.93;;;11.80;;
3571;SDS011;7958;53.024;12.970;2024-03-08T11:08:43;21.23;;;11.10;;
3571;SDS011;7958;53.024;12.970;2024-03-08T11:11:23;24.00;;;11.67;;
3571;SDS011;7958;53.024;12.970;2024-03-08T11:13:52;16.60;;;11.90;;
3571;SDS011;7958;53.024;12.970;2024-03-08T11:19:06;17.63;;;11.23;;
3571;SDS011;7958;53.024;12.970;2024-03-08T11:21:35;17.70;;;11.17;;
3571;SDS011;7958;53.024;12.970;2024-03-08T11:24:08;14.40;;;9.63;;
3571;SDS011;7958;53.024;12.970;2024-03-08T11:26:38;23.00;;;11.70;;
3571;SDS011;7958;53.024;12.970;2024-03-08T11:32:03;17.70;;;9.80;;
3571;SDS011;7958;53.024;12.970;2024-03-08T11:34:30;15.83;;;9.93;;
3571;SDS011;7958;53.024;12.970;2024-03-08T11:36:58;15.30;;;9.63;;
3571;SDS011;7958;53.024;12.970;2024-03-08T11:39:25;20.47;;;10.00;;
3571;SDS011;7958;53.024;12.970;2024-03-08T11:41:53;15.20;;;10.60;;
3571;SDS011;7958;53.024;12.970;2024-03-08T11:44:20;16.10;;;10.80;;
3571;SDS011;7958;53.024;12.970;2024-03-08T11:46:47;15.70;;;10.27;;
3571;SDS011;7958;53.024;12.970;2024-03-08T11:49:13;15.57;;;10.23;;
3571;SDS011;7958;53.024;12.970;2024-03-08T11:51:40;15.10;;;9.77;;
3571;SDS011;7958;53.024;12.970;2024-03-08T11:54:10;12.37;;;8.93;;
3571;SDS011;7958;53.024;12.970;2024-03-08T11:56:39;13.80;;;8.40;;
3571;SDS011;7958;53.024;12.970;2024-03-08T11:59:06;12.40;;;9.10;;
3571;SDS011;7958;53.024;12.970;2024-03-08T12:01:37;14.10;;;10.00;;
3571;SDS011;7958;53.024;12.970;2024-03-08T12:04:04;13.37;;;9.53;;
3571;SDS011;7958;53.024;12.970;2024-03-08T12:06:36;15.63;;;9.53;;
3571;SDS011;7958;53.024;12.970;2024-03-08T12:09:02;14.83;;;8.53;;
3571;SDS011;7958;53.024;12.970;2024-03-08T12:11:29;15.90;;;9.70;;
3571;SDS011;7958;53.024;12.970;2024-03-08T12:13:57;14.00;;;8.40;;
3571;SDS011;7958;53.024;12.970;2024-03-08T12:16:24;15.03;;;9.23;;
3571;SDS011;7958;53.024;12.970;2024-03-08T12:18:50;18.93;;;9.47;;
3571;SDS011;7958;53.024;12.970;2024-03-08T12:21:17;13.27;;;8.83;;
3571;SDS011;7958;53.024;12.970;2024-03-08T12:23:46;12.67;;;8.77;;
3571;SDS011;7958;53.024;12.970;2024-03-08T12:26:15;11.83;;;8.00;;
3571;SDS011;7958;53.024;12.970;2024-03-08T12:28:43;14.20;;;9.17;;
3571;SDS011;7958;53.024;12.970;2024-03-08T12:31:12;12.43;;;8.30;;
3571;SDS011;7958;53.024;12.970;2024-03-08T12:33:47;12.83;;;8.10;;
3571;SDS011;7958;53.024;12.970;2024-03-08T12:36:15;14.63;;;8.27;;
3571;SDS011;7958;53.024;12.970;2024-03-08T12:38:43;12.93;;;9.07;;
3571;SDS011;7958;53.024;12.970;2024-03-08T12:41:12;13.70;;;8.30;;
3571;SDS011;7958;53.024;12.970;2024-03-08T12:43:39;13.10;;;7.93;;
3571;SDS011;7958;53.024;12.970;2024-03-08T12:46:05;13.10;;;6.80;;
3571;SDS011;7958;53.024;12.970;2024-03-08T12:48:35;12.37;;;7.57;;
3571;SDS011;7958;53.024;12.970;2024-03-08T12:51:05;19.90;;;11.70;;
3571;SDS011;7958;53.024;12.970;2024-03-08T12:53:32;11.33;;;8.43;;
3571;SDS011;7958;53.024;12.970;2024-03-08T12:55:58;12.40;;;8.10;;
3571;SDS011;7958;53.024;12.970;2024-03-08T12:58:25;13.57;;;8.40;;
3571;SDS011;7958;53.024;12.970;2024-03-08T13:00:51;12.93;;;8.57;;
3571;SDS011;7958;53.024;12.970;2024-03-08T13:03:18;15.60;;;8.23;;
3571;SDS011;7958;53.024;12.970;2024-03-08T13:05:45;11.93;;;9.00;;
3571;SDS011;7958;53.024;12.970;2024-03-08T13:08:14;16.90;;;9.40;;
3571;SDS011;7958;53.024;12.970;2024-03-08T13:10:43;12.67;;;8.23;;
3571;SDS011;7958;53.024;12.970;2024-03-08T13:13:09;17.43;;;8.13;;
3571;SDS011;7958;53.024;12.970;2024-03-08T13:15:36;13.77;;;8.13;;
3571;SDS011;7958;53.024;12.970;2024-03-08T13:18:03;14.30;;;8.90;;
3571;SDS011;7958;53.024;12.970;2024-03-08T13:20:31;11.87;;;8.63;;
3571;SDS011;7958;53.024;12.970;2024-03-08T13:22:59;12.60;;;7.70;;
3571;SDS011;7958;53.024;12.970;2024-03-08T13:25:26;13.33;;;7.90;;
3571;SDS011;7958;53.024;12.970;2024-03-08T13:27:53;9.90;;;7.00;;
3571;SDS011;7958;53.024;12.970;2024-03-08T13:30:21;10.47;;;7.40;;
3571;SDS011;7958;53.024;12.970;2024-03-08T13:32:51;11.30;;;7.60;;
3571;SDS011;7958;53.024;12.970;2024-03-08T13:35:17;11.90;;;8.50;;
3571;SDS011;7958;53.024;12.970;2024-03-08T13:37:49;13.83;;;8.60;;
3571;SDS011;7958;53.024;12.970;2024-03-08T13:40:18;12.90;;;9.03;;
3571;SDS011;7958;53.024;12.970;2024-03-08T13:42:45;13.67;;;9.47;;
3571;SDS011;7958;53.024;12.970;2024-03-08T13:45:11;13.87;;;9.90;;
3571;SDS011;7958;53.024;12.970;2024-03-08T13:47:39;14.33;;;9.30;;
3571;SDS011;7958;53.024;12.970;2024-03-08T13:50:07;16.17;;;9.47;;
3571;SDS011;7958;53.024;12.970;2024-03-08T13:52:36;13.57;;;9.20;;
3571;SDS011;7958;53.024;12.970;2024-03-08T13:55:03;12.33;;;8.63;;
3571;SDS011;7958;53.024;12.970;2024-03-08T13:57:32;15.13;;;9.03;;
3571;SDS011;7958;53.024;12.970;2024-03-08T13:59:58;14.23;;;9.90;;
3571;SDS011;7958;53.024;12.970;2024-03-08T14:02:24;12.83;;;8.40;;
3571;SDS011;7958;53.024;12.970;2024-03-08T14:04:53;15.00;;;9.60;;
3571;SDS011;7958;53.024;12.970;2024-03-08T14:07:19;13.53;;;9.30;;
3571;SDS011;7958;53.024;12.970;2024-03-08T14:09:45;12.70;;;8.23;;
3571;SDS011;7958;53.024;12.970;2024-03-08T14:12:12;14.20;;;9.13;;
3571;SDS011;7958;53.024;12.970;2024-03-08T14:14:40;14.23;;;9.00;;
3571;SDS011;7958;53.024;12.970;2024-03-08T14:17:07;11.97;;;8.73;;
3571;SDS011;7958;53.024;12.970;2024-03-08T14:19:34;14.53;;;9.07;;
3571;SDS011;7958;53.024;12.970;2024-03-08T14:22:01;13.30;;;8.90;;
3571;SDS011;7958;53.024;12.970;2024-03-08T14:24:29;14.70;;;9.70;;
3571;SDS011;7958;53.024;12.970;2024-03-08T14:26:58;12.97;;;9.10;;
3571;SDS011;7958;53.024;12.970;2024-03-08T14:29:24;13.97;;;9.83;;
3571;SDS011;7958;53.024;12.970;2024-03-08T14:31:55;13.53;;;8.60;;
3571;SDS011;7958;53.024;12.970;2024-03-08T14:34:24;13.93;;;8.70;;
3571;SDS011;7958;53.024;12.970;2024-03-08T14:36:52;12.70;;;9.60;;
3571;SDS011;7958;53.024;12.970;2024-03-08T14:39:18;13.33;;;9.27;;
3571;SDS011;7958;53.024;12.970;2024-03-08T14:41:46;15.00;;;9.90;;
3571;SDS011;7958;53.024;12.970;2024-03-08T14:44:13;13.40;;;8.37;;
3571;SDS011;7958;53.024;12.970;2024-03-08T14:46:40;13.53;;;8.83;;
3571;SDS011;7958;53.024;12.970;2024-03-08T14:49:09;15.83;;;8.60;;
3571;SDS011;7958;53.024;12.970;2024-03-08T14:51:35;12.90;;;9.20;;